createdAt,value
2023-02-02T00:00:25.814Z,4.84
2023-02-02T00:01:27.794Z,4.86
2023-02-02T00:02:29.717Z,4.87
2023-02-02T00:03:31.974Z,4.89
2023-02-02T00:04:35.470Z,4.90
2023-02-02T00:05:37.907Z,4.94
2023-02-02T00:06:39.761Z,4.94
2023-02-02T00:07:41.749Z,4.94
2023-02-02T00:08:43.708Z,4.94
2023-02-02T00:09:45.544Z,4.94
2023-02-02T00:10:47.839Z,4.96
2023-02-02T00:11:51.343Z,4.98
2023-02-02T00:12:54.312Z,4.96
2023-02-02T00:13:56.226Z,5.00
2023-02-02T00:14:58.358Z,5.07
2023-02-02T00:16:00.423Z,5.12
2023-02-02T00:17:02.290Z,5.13
2023-02-02T00:18:04.655Z,5.10
2023-02-02T00:19:11.336Z,5.10
2023-02-02T00:20:13.161Z,5.12
2023-02-02T00:21:15.006Z,5.13
2023-02-02T00:22:17.356Z,5.12
2023-02-02T00:23:19.415Z,5.11
2023-02-02T00:24:22.020Z,5.09
2023-02-02T00:25:24.075Z,5.09
2023-02-02T00:26:27.280Z,5.14
2023-02-02T00:27:29.192Z,5.17
2023-02-02T00:28:31.100Z,5.16
2023-02-02T00:29:32.978Z,5.16
2023-02-02T00:30:34.791Z,5.16
2023-02-02T00:31:36.887Z,5.17
2023-02-02T00:32:38.714Z,5.16
2023-02-02T00:33:44.792Z,5.16
2023-02-02T00:34:46.693Z,5.15
2023-02-02T00:35:48.591Z,5.15
2023-02-02T00:36:51.107Z,5.14
2023-02-02T00:37:52.988Z,5.15
2023-02-02T00:38:54.934Z,5.14
2023-02-02T00:39:56.716Z,5.15
2023-02-02T00:40:58.565Z,5.15
2023-02-02T00:42:00.418Z,5.16
2023-02-02T00:43:02.302Z,5.16
2023-02-02T00:44:22.977Z,5.17
2023-02-02T00:45:26.440Z,5.19
2023-02-02T00:46:28.424Z,5.22
2023-02-02T00:47:30.248Z,5.25
2023-02-02T00:48:32.037Z,5.25
2023-02-02T00:49:33.916Z,5.22
2023-02-02T00:50:35.741Z,5.24
2023-02-02T00:51:37.924Z,5.27
2023-02-02T00:52:39.707Z,5.32
2023-02-02T00:53:41.541Z,5.32
2023-02-02T00:54:43.476Z,5.32
2023-02-02T00:55:45.270Z,5.34
2023-02-02T00:56:47.066Z,5.33
2023-02-02T00:57:48.960Z,5.33
2023-02-02T00:58:50.726Z,5.33
2023-02-02T00:59:52.650Z,5.33
2023-02-02T01:00:54.610Z,5.32
2023-02-02T01:01:56.557Z,5.33
2023-02-02T01:03:04.553Z,5.32
2023-02-02T01:04:06.583Z,5.29
2023-02-02T01:05:08.647Z,5.27
2023-02-02T01:06:10.829Z,5.22
2023-02-02T01:07:12.736Z,5.21
2023-02-02T01:08:14.560Z,5.20
2023-02-02T01:09:16.730Z,5.19
2023-02-02T01:10:19.120Z,5.21
2023-02-02T01:11:21.014Z,5.21
2023-02-02T01:12:22.885Z,5.22
2023-02-02T01:13:24.801Z,5.20
2023-02-02T01:14:26.812Z,5.18
2023-02-02T01:15:30.717Z,5.17
2023-02-02T01:16:33.050Z,5.17
2023-02-02T01:17:34.936Z,5.15
2023-02-02T01:18:37.076Z,5.16
2023-02-02T01:19:38.863Z,5.16
2023-02-02T01:20:40.701Z,5.16
2023-02-02T01:21:43.107Z,5.17
2023-02-02T01:22:45.316Z,5.13
2023-02-02T01:23:47.224Z,5.10
2023-02-02T01:24:49.628Z,5.07
2023-02-02T01:25:57.956Z,5.07
2023-02-02T01:26:59.965Z,5.08
2023-02-02T01:28:01.793Z,5.13
2023-02-02T01:29:03.667Z,5.15
2023-02-02T01:30:05.804Z,5.14
2023-02-02T01:31:09.186Z,5.16
2023-02-02T01:32:11.298Z,5.14
2023-02-02T01:33:13.117Z,5.17
2023-02-02T01:34:15.001Z,5.17
2023-02-02T01:35:16.989Z,5.17
2023-02-02T01:36:20.380Z,5.18
2023-02-02T01:37:22.635Z,5.19
2023-02-02T01:38:24.743Z,5.20
2023-02-02T01:39:26.606Z,5.21
2023-02-02T01:40:28.415Z,5.20
2023-02-02T01:41:30.363Z,5.19
2023-02-02T01:42:32.211Z,5.20
2023-02-02T01:43:43.415Z,5.18
2023-02-02T01:45:04.004Z,5.19
2023-02-02T01:46:06.082Z,5.16
2023-02-02T01:47:08.020Z,5.14
2023-02-02T01:48:09.876Z,5.15
2023-02-02T01:49:13.523Z,5.14
2023-02-02T01:50:17.241Z,5.11
2023-02-02T01:51:21.340Z,5.09
2023-02-02T01:52:24.747Z,5.09
2023-02-02T01:53:26.831Z,5.07
2023-02-02T01:54:31.583Z,5.07
2023-02-02T01:55:35.567Z,5.12
2023-02-02T01:56:42.722Z,5.14
2023-02-02T01:57:53.210Z,5.13
2023-02-02T01:58:55.222Z,5.13
2023-02-02T01:59:59.859Z,5.11
2023-02-02T02:01:01.821Z,5.10
2023-02-02T02:02:03.778Z,5.10
2023-02-02T02:03:08.502Z,5.13
2023-02-02T02:04:10.699Z,5.13
2023-02-02T02:05:15.743Z,5.13
2023-02-02T02:06:19.099Z,5.15
2023-02-02T02:07:21.500Z,5.15
2023-02-02T02:08:31.155Z,5.14
2023-02-02T02:09:34.094Z,5.12
2023-02-02T02:10:36.045Z,5.14
2023-02-02T02:11:37.954Z,5.18
2023-02-02T02:12:39.770Z,5.18
2023-02-02T02:14:00.361Z,5.20
2023-02-02T02:15:21.001Z,5.24
2023-02-02T02:16:32.071Z,5.27
2023-02-02T02:17:33.899Z,5.24
2023-02-02T02:18:55.636Z,5.24
2023-02-02T02:20:31.243Z,5.23
2023-02-02T02:21:56.501Z,5.23
2023-02-02T02:23:16.708Z,5.24
2023-02-02T02:24:51.403Z,5.18
2023-02-02T02:26:32.980Z,5.17
2023-02-02T02:27:59.180Z,5.17
2023-02-02T02:29:02.389Z,5.19
2023-02-02T02:30:07.374Z,5.18
2023-02-02T02:31:20.385Z,5.15
2023-02-02T02:32:34.190Z,5.17
2023-02-02T02:33:45.000Z,5.19
2023-02-02T02:34:51.656Z,5.21
2023-02-02T02:36:02.453Z,5.22
2023-02-02T02:37:07.552Z,5.24
2023-02-02T02:38:12.712Z,5.26
2023-02-02T02:39:18.985Z,5.25
2023-02-02T02:40:31.476Z,5.25
2023-02-02T02:41:35.205Z,5.25
2023-02-02T02:42:40.002Z,5.22
2023-02-02T02:43:49.762Z,5.19
2023-02-02T02:44:53.620Z,5.19
2023-02-02T02:45:55.749Z,5.17
2023-02-02T02:46:57.628Z,5.14
2023-02-02T02:48:00.076Z,5.11
2023-02-02T02:49:01.980Z,5.11
2023-02-02T02:50:04.006Z,5.11
2023-02-02T02:51:10.112Z,5.11
2023-02-02T02:52:12.019Z,5.13
2023-02-02T02:53:19.058Z,5.14
2023-02-02T02:54:26.903Z,5.12
2023-02-02T02:55:32.108Z,5.11
2023-02-02T02:56:38.438Z,5.11
2023-02-02T02:57:55.339Z,5.10
2023-02-02T02:59:07.136Z,5.12
2023-02-02T03:00:15.789Z,5.12
2023-02-02T03:01:21.528Z,5.09
2023-02-02T03:02:32.347Z,5.06
2023-02-02T03:03:37.610Z,5.04
2023-02-02T03:04:54.793Z,5.04
2023-02-02T03:06:01.960Z,5.07
2023-02-02T03:07:07.843Z,5.08
2023-02-02T03:08:09.614Z,5.06
2023-02-02T03:09:13.852Z,5.07
2023-02-02T03:10:18.651Z,5.05
2023-02-02T03:11:21.121Z,4.97
2023-02-02T03:12:23.153Z,4.92
2023-02-02T03:13:26.310Z,4.93
2023-02-02T03:14:28.130Z,4.94
2023-02-02T03:15:29.990Z,4.96
2023-02-02T03:16:31.840Z,4.96
2023-02-02T03:17:33.664Z,4.96
2023-02-02T03:18:35.806Z,4.98
2023-02-02T03:19:37.739Z,5.01
2023-02-02T03:20:39.726Z,5.05
2023-02-02T03:21:41.582Z,5.06
2023-02-02T03:22:43.473Z,5.06
2023-02-02T03:23:45.224Z,5.07
2023-02-02T03:24:47.033Z,5.08
2023-02-02T03:25:48.875Z,5.10
2023-02-02T03:26:50.804Z,5.11
2023-02-02T03:27:53.472Z,5.10
2023-02-02T03:28:56.910Z,5.09
2023-02-02T03:29:58.906Z,5.08
2023-02-02T03:31:02.579Z,5.09
2023-02-02T03:32:04.784Z,5.09
2023-02-02T03:33:07.510Z,5.06
2023-02-02T03:34:09.407Z,5.03
2023-02-02T03:35:11.258Z,4.99
2023-02-02T03:36:13.155Z,4.92
2023-02-02T03:37:14.965Z,4.86
2023-02-02T03:38:16.921Z,4.84
2023-02-02T03:39:18.976Z,4.77
2023-02-02T03:40:20.858Z,4.71
2023-02-02T03:41:22.703Z,4.58
2023-02-02T03:42:24.516Z,4.43
2023-02-02T03:43:26.534Z,4.38
2023-02-02T03:44:28.451Z,4.16
2023-02-02T03:45:30.666Z,4.04
2023-02-02T03:46:32.619Z,3.95
2023-02-02T03:47:34.483Z,3.88
2023-02-02T03:48:37.373Z,3.84
2023-02-02T03:49:39.212Z,3.74
2023-02-02T03:50:41.092Z,3.75
2023-02-02T03:51:44.503Z,3.73
2023-02-02T03:52:46.385Z,3.73
2023-02-02T03:53:48.258Z,3.67
2023-02-02T03:54:50.150Z,3.59
2023-02-02T03:55:52.021Z,3.54
2023-02-02T03:56:53.844Z,3.54
2023-02-02T03:57:55.732Z,3.47
2023-02-02T03:58:57.706Z,3.47
2023-02-02T03:59:59.527Z,3.45
2023-02-02T04:01:05.723Z,3.44
2023-02-02T04:02:07.620Z,3.39
2023-02-02T04:03:09.459Z,3.34
2023-02-02T04:04:11.405Z,3.28
2023-02-02T04:05:13.248Z,3.28
2023-02-02T04:06:15.225Z,3.31
2023-02-02T04:07:17.012Z,3.29
2023-02-02T04:08:18.888Z,3.26
2023-02-02T04:09:20.952Z,3.23
2023-02-02T04:10:23.258Z,3.27
2023-02-02T04:11:25.073Z,3.26
2023-02-02T04:12:26.981Z,3.24
2023-02-02T04:13:28.791Z,3.10
2023-02-02T04:14:30.726Z,2.98
2023-02-02T04:15:32.564Z,2.99
2023-02-02T04:16:37.893Z,3.00
2023-02-02T04:17:39.880Z,3.02
2023-02-02T04:18:41.792Z,3.04
2023-02-02T04:19:43.709Z,3.06
2023-02-02T04:20:45.538Z,3.04
2023-02-02T04:21:47.411Z,3.01
2023-02-02T04:22:49.303Z,2.99
2023-02-02T04:23:51.098Z,2.97
2023-02-02T04:24:53.100Z,2.98
2023-02-02T04:25:55.136Z,2.96
2023-02-02T04:26:56.974Z,2.94
2023-02-02T04:27:58.827Z,2.93
2023-02-02T04:29:00.634Z,2.93
2023-02-02T04:30:02.546Z,2.93
2023-02-02T04:31:04.541Z,2.96
2023-02-02T04:32:06.388Z,2.94
2023-02-02T04:33:08.236Z,2.92
2023-02-02T04:34:10.160Z,2.92
2023-02-02T04:35:12.054Z,2.93
2023-02-02T04:36:13.888Z,2.96
2023-02-02T04:37:15.736Z,2.96
2023-02-02T04:38:17.577Z,2.88
2023-02-02T04:39:19.395Z,2.88
2023-02-02T04:40:21.321Z,2.88
2023-02-02T04:41:23.254Z,2.85
2023-02-02T04:42:25.160Z,2.86
2023-02-02T04:43:27.090Z,2.86
2023-02-02T04:44:28.967Z,2.87
2023-02-02T04:45:30.984Z,2.87
2023-02-02T04:46:32.820Z,2.84
2023-02-02T04:47:34.576Z,2.78
2023-02-02T04:48:37.043Z,2.75
2023-02-02T04:49:38.895Z,2.73
2023-02-02T04:50:40.806Z,2.67
2023-02-02T04:51:42.728Z,2.66
2023-02-02T04:52:47.394Z,2.65
2023-02-02T04:53:49.276Z,2.64
2023-02-02T04:54:51.176Z,2.66
2023-02-02T04:55:53.147Z,2.67
2023-02-02T04:56:55.003Z,2.67
2023-02-02T04:57:56.841Z,2.70
2023-02-02T04:58:59.128Z,2.71
2023-02-02T05:00:00.956Z,2.71
2023-02-02T05:01:08.291Z,2.71
2023-02-02T05:02:10.533Z,2.69
2023-02-02T05:03:12.707Z,2.67
2023-02-02T05:04:14.557Z,2.67
2023-02-02T05:05:16.451Z,2.66
2023-02-02T05:06:19.808Z,2.65
2023-02-02T05:07:21.796Z,2.60
2023-02-02T05:08:23.732Z,2.56
2023-02-02T05:09:25.807Z,2.54
2023-02-02T05:10:27.772Z,2.51
2023-02-02T05:11:31.176Z,2.46
2023-02-02T05:12:33.114Z,2.49
2023-02-02T05:13:34.976Z,2.52
2023-02-02T05:14:36.907Z,2.55
2023-02-02T05:15:38.731Z,2.55
2023-02-02T05:16:40.820Z,2.55
2023-02-02T05:17:42.734Z,2.55
2023-02-02T05:18:49.248Z,2.50
2023-02-02T05:19:51.144Z,2.48
2023-02-02T05:20:53.245Z,2.45
2023-02-02T05:21:56.227Z,2.40
2023-02-02T05:22:58.090Z,2.44
2023-02-02T05:24:01.466Z,2.45
2023-02-02T05:25:03.458Z,2.37
2023-02-02T05:26:05.304Z,2.29
2023-02-02T05:27:07.147Z,2.29
2023-02-02T05:28:09.999Z,2.30
2023-02-02T05:29:11.891Z,2.32
2023-02-02T05:30:14.357Z,2.32
2023-02-02T05:31:16.276Z,2.35
2023-02-02T05:32:18.267Z,2.33
2023-02-02T05:33:20.256Z,2.33
2023-02-02T05:34:22.799Z,2.29
2023-02-02T05:35:25.097Z,2.23
2023-02-02T05:36:27.330Z,2.24
2023-02-02T05:37:29.155Z,2.23
2023-02-02T05:38:31.106Z,2.23
2023-02-02T05:39:32.954Z,2.26
2023-02-02T05:40:34.823Z,2.29
2023-02-02T05:41:36.781Z,2.30
2023-02-02T05:42:38.590Z,2.31
2023-02-02T05:43:40.471Z,2.29
2023-02-02T05:44:42.410Z,2.28
2023-02-02T05:45:44.309Z,2.31
2023-02-02T05:46:46.341Z,2.30
2023-02-02T05:47:48.188Z,2.32
2023-02-02T05:48:50.093Z,2.29
2023-02-02T05:49:51.956Z,2.27
2023-02-02T05:51:03.008Z,2.27
2023-02-02T05:52:05.490Z,2.23
2023-02-02T05:53:07.341Z,2.24
2023-02-02T05:54:09.308Z,2.26
2023-02-02T05:55:11.210Z,2.25
2023-02-02T05:56:13.501Z,2.24
2023-02-02T05:57:15.371Z,2.25
2023-02-02T05:58:17.188Z,2.27
2023-02-02T05:59:19.733Z,2.27
2023-02-02T06:00:21.812Z,2.29
2023-02-02T06:01:23.582Z,2.26
2023-02-02T06:02:25.540Z,2.23
2023-02-02T06:03:27.550Z,2.15
2023-02-02T06:04:29.596Z,2.16
2023-02-02T06:05:31.456Z,2.21
2023-02-02T06:06:35.798Z,2.16
2023-02-02T06:07:37.729Z,2.18
2023-02-02T06:08:39.619Z,2.18
2023-02-02T06:09:41.522Z,2.14
2023-02-02T06:10:43.579Z,2.14
2023-02-02T06:11:45.722Z,2.12
2023-02-02T06:12:47.640Z,2.10
2023-02-02T06:13:49.469Z,2.11
2023-02-02T06:14:51.400Z,2.16
2023-02-02T06:15:53.315Z,2.18
2023-02-02T06:16:55.214Z,2.15
2023-02-02T06:17:58.507Z,2.13
2023-02-02T06:19:00.378Z,2.16
2023-02-02T06:20:02.272Z,2.19
2023-02-02T06:21:06.362Z,2.18
2023-02-02T06:22:08.258Z,2.15
2023-02-02T06:23:12.182Z,2.15
2023-02-02T06:24:14.017Z,2.15
2023-02-02T06:25:16.004Z,2.15
2023-02-02T06:26:18.383Z,2.14
2023-02-02T06:27:21.094Z,2.13
2023-02-02T06:28:22.912Z,2.13
2023-02-02T06:29:24.782Z,2.13
2023-02-02T06:30:27.624Z,2.12
2023-02-02T06:31:29.524Z,2.15
2023-02-02T06:32:31.572Z,2.17
2023-02-02T06:33:33.433Z,2.19
2023-02-02T06:34:35.296Z,2.20
2023-02-02T06:35:37.153Z,2.22
2023-02-02T06:36:38.963Z,2.25
2023-02-02T06:37:42.534Z,2.24
2023-02-02T06:38:44.513Z,2.24
2023-02-02T06:39:46.378Z,2.24
2023-02-02T06:40:48.228Z,2.25
2023-02-02T06:41:52.362Z,2.28
2023-02-02T06:42:58.188Z,2.28
2023-02-02T06:44:00.037Z,2.30
2023-02-02T06:45:02.629Z,2.33
2023-02-02T06:46:04.550Z,2.34
2023-02-02T06:47:06.389Z,2.36
2023-02-02T06:48:11.159Z,2.34
2023-02-02T06:49:13.202Z,2.31
2023-02-02T06:50:15.115Z,2.31
2023-02-02T06:51:16.999Z,2.31
2023-02-02T06:52:18.802Z,2.27
2023-02-02T06:53:23.551Z,2.27
2023-02-02T06:54:25.479Z,2.29
2023-02-02T06:55:27.484Z,2.28
2023-02-02T06:56:29.976Z,2.25
2023-02-02T06:57:31.865Z,2.24
2023-02-02T06:58:34.281Z,2.24
2023-02-02T06:59:36.208Z,2.22
2023-02-02T07:00:38.481Z,2.22
2023-02-02T07:01:40.422Z,2.23
2023-02-02T07:02:45.296Z,2.28
2023-02-02T07:03:51.466Z,2.30
2023-02-02T07:04:53.502Z,2.34
2023-02-02T07:05:55.285Z,2.33
2023-02-02T07:06:57.147Z,2.35
2023-02-02T07:07:58.933Z,2.35
2023-02-02T07:09:03.062Z,2.36
2023-02-02T07:10:05.468Z,2.39
2023-02-02T07:11:12.913Z,2.38
2023-02-02T07:12:19.736Z,2.42
2023-02-02T07:13:21.823Z,2.40
2023-02-02T07:14:23.598Z,2.41
2023-02-02T07:15:25.802Z,2.43
2023-02-02T07:16:27.816Z,2.44
2023-02-02T07:17:29.758Z,2.42
2023-02-02T07:18:32.056Z,2.40
2023-02-02T07:19:33.969Z,2.42
2023-02-02T07:20:35.817Z,2.38
2023-02-02T07:21:37.711Z,2.38
2023-02-02T07:22:40.119Z,2.33
2023-02-02T07:23:42.020Z,2.29
2023-02-02T07:24:43.904Z,2.27
2023-02-02T07:25:45.882Z,2.25
2023-02-02T07:26:47.724Z,2.27
2023-02-02T07:27:55.541Z,2.28
2023-02-02T07:28:57.439Z,2.29
2023-02-02T07:29:59.326Z,2.25
2023-02-02T07:31:01.535Z,2.26
2023-02-02T07:32:03.557Z,2.25
2023-02-02T07:33:05.496Z,2.25
2023-02-02T07:34:07.407Z,2.28
2023-02-02T07:35:09.390Z,2.32
2023-02-02T07:36:11.755Z,2.29
2023-02-02T07:37:13.626Z,2.30
2023-02-02T07:38:15.680Z,2.33
2023-02-02T07:39:17.524Z,2.32
2023-02-02T07:40:19.457Z,2.28
2023-02-02T07:41:21.349Z,2.25
2023-02-02T07:42:23.170Z,2.28
2023-02-02T07:43:25.147Z,2.28
2023-02-02T07:44:26.973Z,2.31
2023-02-02T07:45:29.141Z,2.32
2023-02-02T07:46:31.564Z,2.30
2023-02-02T07:47:33.422Z,2.28
2023-02-02T07:48:35.404Z,2.28
2023-02-02T07:49:37.208Z,2.25
2023-02-02T07:50:39.045Z,2.24
2023-02-02T07:51:46.359Z,2.27
2023-02-02T07:52:49.563Z,2.25
2023-02-02T07:53:52.511Z,2.22
2023-02-02T07:54:59.923Z,2.25
2023-02-02T07:56:13.007Z,2.26
2023-02-02T07:57:17.901Z,2.25
2023-02-02T07:58:19.765Z,2.26
2023-02-02T07:59:21.626Z,2.25
2023-02-02T08:00:23.923Z,2.27
2023-02-02T08:01:26.743Z,2.28
2023-02-02T08:02:28.872Z,2.30
2023-02-02T08:03:30.851Z,2.29
2023-02-02T08:04:34.733Z,2.32
2023-02-02T08:05:36.596Z,2.31
2023-02-02T08:06:39.400Z,2.29
2023-02-02T08:07:41.256Z,2.27
2023-02-02T08:08:43.219Z,2.30
2023-02-02T08:09:48.845Z,2.33
2023-02-02T08:10:51.707Z,2.37
2023-02-02T08:11:53.563Z,2.37
2023-02-02T08:12:55.530Z,2.38
2023-02-02T08:13:58.915Z,2.38
2023-02-02T08:15:00.986Z,2.35
2023-02-02T08:16:02.962Z,2.35
2023-02-02T08:17:04.917Z,2.34
2023-02-02T08:18:06.685Z,2.30
2023-02-02T08:19:09.959Z,2.30
2023-02-02T08:20:13.379Z,2.32
2023-02-02T08:21:16.308Z,2.31
2023-02-02T08:22:20.278Z,2.31
2023-02-02T08:23:23.932Z,2.27
2023-02-02T08:24:25.833Z,2.24
2023-02-02T08:25:27.846Z,2.23
2023-02-02T08:26:30.955Z,2.22
2023-02-02T08:27:32.808Z,2.19
2023-02-02T08:28:36.632Z,2.22
2023-02-02T08:29:39.353Z,2.22
2023-02-02T08:30:41.304Z,2.22
2023-02-02T08:31:44.596Z,2.19
2023-02-02T08:32:46.443Z,2.20
2023-02-02T08:33:48.324Z,2.19
2023-02-02T08:34:52.034Z,2.18
2023-02-02T08:35:53.949Z,2.16
2023-02-02T08:36:55.818Z,2.20
2023-02-02T08:37:57.770Z,2.23
2023-02-02T08:39:03.677Z,2.24
2023-02-02T08:40:05.845Z,2.22
2023-02-02T08:41:08.662Z,2.23
2023-02-02T08:42:10.537Z,2.22
2023-02-02T08:43:12.345Z,2.24
2023-02-02T08:44:18.534Z,2.24
2023-02-02T08:46:13.693Z,2.22
2023-02-02T08:46:43.621Z,2.19
2023-02-02T08:47:50.413Z,2.22
2023-02-02T08:48:57.914Z,2.27
2023-02-02T08:49:59.786Z,2.26
2023-02-02T08:51:01.998Z,2.22
2023-02-02T08:52:04.049Z,2.24
2023-02-02T08:53:05.883Z,2.24
2023-02-02T08:54:07.723Z,2.25
2023-02-02T08:55:09.892Z,2.29
2023-02-02T08:56:15.846Z,2.26
2023-02-02T08:57:17.813Z,2.27
2023-02-02T08:58:19.670Z,2.28
2023-02-02T08:59:21.468Z,2.26
2023-02-02T09:00:23.518Z,2.25
2023-02-02T09:01:29.885Z,2.25
2023-02-02T09:02:31.918Z,2.27
2023-02-02T09:03:34.017Z,2.28
2023-02-02T09:04:35.971Z,2.30
2023-02-02T09:05:38.936Z,2.30
2023-02-02T09:06:41.193Z,2.32
2023-02-02T09:07:43.196Z,2.31
2023-02-02T09:08:45.700Z,2.33
2023-02-02T09:09:47.561Z,2.34
2023-02-02T09:10:49.369Z,2.34
2023-02-02T09:11:51.231Z,2.32
2023-02-02T09:12:53.110Z,2.33
2023-02-02T09:13:56.272Z,2.36
2023-02-02T09:14:58.548Z,2.39
2023-02-02T09:16:01.412Z,2.38
2023-02-02T09:17:03.370Z,2.34
2023-02-02T09:18:05.324Z,2.31
2023-02-02T09:19:07.400Z,2.30
2023-02-02T09:20:10.006Z,2.33
2023-02-02T09:21:13.123Z,2.35
2023-02-02T09:22:15.039Z,2.35
2023-02-02T09:23:16.997Z,2.37
2023-02-02T09:24:18.911Z,2.39
2023-02-02T09:25:20.833Z,2.38
2023-02-02T09:26:24.428Z,2.41
2023-02-02T09:27:26.300Z,2.46
2023-02-02T09:28:28.286Z,2.42
2023-02-02T09:29:30.099Z,2.37
2023-02-02T09:30:31.956Z,2.32
2023-02-02T09:31:35.108Z,2.28
2023-02-02T09:32:37.059Z,2.28
2023-02-02T09:33:39.053Z,2.26
2023-02-02T09:34:41.107Z,2.29
2023-02-02T09:35:42.994Z,2.27
2023-02-02T09:36:44.986Z,2.25
2023-02-02T09:37:46.893Z,2.20
2023-02-02T09:38:49.557Z,2.20
2023-02-02T09:39:51.311Z,2.23
2023-02-02T09:40:53.211Z,2.25
2023-02-02T09:42:00.162Z,2.25
2023-02-02T09:43:01.954Z,2.26
2023-02-02T09:44:03.815Z,2.25
2023-02-02T09:45:15.426Z,2.24
2023-02-02T09:46:35.790Z,2.22
2023-02-02T09:47:58.838Z,2.13
2023-02-02T09:49:02.618Z,2.03
2023-02-02T09:50:12.027Z,2.04
2023-02-02T09:51:17.342Z,2.09
2023-02-02T09:52:23.702Z,2.08
2023-02-02T09:53:36.624Z,1.95
2023-02-02T09:54:45.343Z,1.88
2023-02-02T09:55:50.579Z,1.90
2023-02-02T09:56:56.187Z,1.89
2023-02-02T09:58:19.746Z,1.91
2023-02-02T09:59:27.973Z,1.93
2023-02-02T10:00:32.110Z,1.91
2023-02-02T10:01:39.418Z,1.92
2023-02-02T10:02:44.810Z,1.92
2023-02-02T10:03:55.462Z,1.94
2023-02-02T10:05:02.519Z,1.95
2023-02-02T10:06:24.594Z,1.97
2023-02-02T10:07:41.242Z,2.03
2023-02-02T10:08:45.366Z,2.05
2023-02-02T10:09:49.393Z,2.08
2023-02-02T10:10:52.127Z,2.07
2023-02-02T10:11:53.971Z,2.09
2023-02-02T10:13:04.324Z,2.14
2023-02-02T10:14:14.564Z,2.07
2023-02-02T10:15:18.056Z,2.11
2023-02-02T10:16:20.109Z,2.16
2023-02-02T10:17:22.047Z,2.16
2023-02-02T10:18:41.216Z,2.18
2023-02-02T10:19:48.661Z,2.18
2023-02-02T10:20:59.586Z,2.17
2023-02-02T10:22:15.452Z,2.13
2023-02-02T10:23:27.150Z,2.14
2023-02-02T10:24:30.073Z,2.18
2023-02-02T10:25:33.617Z,2.24
2023-02-02T10:26:40.115Z,2.22
2023-02-02T10:27:46.326Z,2.19
2023-02-02T10:29:00.433Z,2.18
2023-02-02T10:30:03.813Z,2.22
2023-02-02T10:31:10.077Z,2.22
2023-02-02T10:32:22.924Z,2.23
2023-02-02T10:33:30.570Z,2.23
2023-02-02T10:34:42.066Z,2.25
2023-02-02T10:35:54.406Z,2.24
2023-02-02T10:37:14.919Z,2.26
2023-02-02T10:38:22.376Z,2.28
2023-02-02T10:39:27.216Z,2.25
2023-02-02T10:40:37.483Z,2.24
2023-02-02T10:41:39.519Z,2.24
2023-02-02T10:42:41.341Z,2.27
2023-02-02T10:44:00.193Z,2.28
2023-02-02T10:45:04.672Z,2.30
2023-02-02T10:46:10.265Z,2.32
2023-02-02T10:47:16.958Z,2.31
2023-02-02T10:48:24.027Z,2.25
2023-02-02T10:49:38.908Z,2.22
2023-02-02T10:50:43.634Z,2.25
2023-02-02T10:51:55.619Z,2.27
2023-02-02T10:53:01.961Z,2.25
2023-02-02T10:54:08.747Z,2.23
2023-02-02T10:55:10.588Z,2.19
2023-02-02T10:56:15.086Z,2.18
2023-02-02T10:57:20.252Z,2.18
2023-02-02T10:58:51.505Z,2.22
2023-02-02T11:00:01.560Z,2.26
2023-02-02T11:01:05.629Z,2.24
2023-02-02T11:02:20.781Z,2.16
2023-02-02T11:03:27.854Z,2.14
2023-02-02T11:04:48.169Z,2.15
2023-02-02T11:06:08.333Z,2.19
2023-02-02T11:07:10.954Z,2.23
2023-02-02T11:08:14.289Z,2.25
2023-02-02T11:09:25.007Z,2.26
2023-02-02T11:10:27.207Z,2.27
2023-02-02T11:11:29.696Z,2.23
2023-02-02T11:12:34.497Z,2.24
2023-02-02T11:13:39.918Z,2.24
2023-02-02T11:14:54.750Z,2.23
2023-02-02T11:16:14.705Z,2.23
2023-02-02T11:17:24.256Z,2.22
2023-02-02T11:18:28.484Z,2.22
2023-02-02T11:19:31.143Z,2.24
2023-02-02T11:20:34.785Z,2.23
2023-02-02T11:21:38.312Z,2.24
2023-02-02T11:22:40.579Z,2.22
2023-02-02T11:23:51.438Z,2.23
2023-02-02T11:24:53.981Z,2.20
2023-02-02T11:26:00.393Z,2.18
2023-02-02T11:27:07.793Z,2.16
2023-02-02T11:28:13.969Z,2.15
2023-02-02T11:29:18.904Z,2.17
2023-02-02T11:30:37.449Z,2.19
2023-02-02T11:31:39.407Z,2.22
2023-02-02T11:32:42.132Z,2.23
2023-02-02T11:33:43.965Z,2.22
2023-02-02T11:34:46.020Z,2.24
2023-02-02T11:36:14.217Z,2.25
2023-02-02T11:37:20.948Z,2.25
2023-02-02T11:38:22.925Z,2.27
2023-02-02T11:39:25.311Z,2.27
2023-02-02T11:40:29.342Z,2.28
2023-02-02T11:41:32.149Z,2.28
2023-02-02T11:42:34.311Z,2.24
2023-02-02T11:43:51.327Z,2.22
2023-02-02T11:44:56.096Z,2.19
2023-02-02T11:46:04.548Z,2.19
2023-02-02T11:47:06.897Z,2.14
2023-02-02T11:48:14.506Z,2.11
2023-02-02T11:49:19.195Z,2.13
2023-02-02T11:50:25.237Z,2.16
2023-02-02T11:51:28.629Z,2.21
2023-02-02T11:52:32.826Z,2.26
2023-02-02T11:53:35.833Z,2.28
2023-02-02T11:54:38.493Z,2.31
2023-02-02T11:55:43.550Z,2.33
2023-02-02T11:56:50.194Z,2.32
2023-02-02T11:58:12.185Z,2.32
2023-02-02T11:59:37.121Z,2.33
2023-02-02T12:00:48.994Z,2.30
2023-02-02T12:01:50.822Z,2.29
2023-02-02T12:02:52.911Z,2.29
2023-02-02T12:03:56.698Z,2.28
2023-02-02T12:05:14.792Z,2.28
2023-02-02T12:06:21.485Z,2.28
2023-02-02T12:07:23.236Z,2.28
2023-02-02T12:08:25.880Z,2.28
2023-02-02T12:09:28.636Z,2.26
2023-02-02T12:10:50.710Z,2.27
2023-02-02T12:12:16.809Z,2.25
2023-02-02T12:13:27.608Z,2.26
2023-02-02T12:14:52.823Z,2.23
2023-02-02T12:15:54.676Z,2.24
2023-02-02T12:17:03.453Z,2.23
2023-02-02T12:18:05.268Z,2.23
2023-02-02T12:19:13.176Z,2.25
2023-02-02T12:20:24.446Z,2.28
2023-02-02T12:21:41.296Z,2.28
2023-02-02T12:23:01.857Z,2.27
2023-02-02T12:24:19.007Z,2.29
2023-02-02T12:25:39.611Z,2.30
2023-02-02T12:26:48.022Z,2.25
2023-02-02T12:28:06.529Z,2.24
2023-02-02T12:29:08.306Z,2.20
2023-02-02T12:30:10.330Z,2.19
2023-02-02T12:31:30.854Z,2.17
2023-02-02T12:32:51.496Z,2.14
2023-02-02T12:34:07.219Z,2.14
2023-02-02T12:35:30.283Z,2.14
2023-02-02T12:36:50.633Z,2.17
2023-02-02T12:38:18.958Z,2.20
2023-02-02T12:39:37.657Z,2.21
2023-02-02T12:40:53.060Z,2.19
2023-02-02T12:42:04.258Z,2.16
2023-02-02T12:43:18.246Z,2.16
2023-02-02T12:44:26.044Z,2.12
2023-02-02T12:45:36.728Z,2.12
2023-02-02T12:46:51.270Z,2.12
2023-02-02T12:48:05.451Z,2.14
2023-02-02T12:49:25.926Z,2.15
2023-02-02T12:50:30.953Z,2.17
2023-02-02T12:51:51.313Z,2.15
2023-02-02T12:52:56.277Z,2.13
2023-02-02T12:54:34.669Z,2.14
2023-02-02T12:55:46.493Z,2.11
2023-02-02T12:56:55.347Z,2.12
2023-02-02T12:58:05.706Z,2.16
2023-02-02T12:59:19.400Z,2.17
2023-02-02T13:00:38.455Z,2.21
2023-02-02T13:01:49.080Z,2.22
2023-02-02T13:03:09.647Z,2.22
2023-02-02T13:04:17.400Z,2.24
2023-02-02T13:08:19.392Z,2.19
2023-02-02T13:09:28.027Z,2.14
2023-02-02T13:10:36.946Z,2.13
2023-02-02T13:11:42.182Z,2.15
2023-02-02T13:12:51.704Z,2.17
2023-02-02T13:13:53.682Z,2.17
2023-02-02T13:14:58.272Z,2.16
2023-02-02T13:16:20.389Z,2.18
2023-02-02T13:17:25.879Z,2.18
2023-02-02T13:18:33.052Z,2.16
2023-02-02T13:19:37.438Z,2.18
2023-02-02T13:20:47.904Z,2.18
2023-02-02T13:21:50.890Z,2.18
2023-02-02T13:22:55.417Z,2.15
2023-02-02T13:24:00.527Z,2.17
2023-02-02T13:25:05.201Z,2.20
2023-02-02T13:26:17.627Z,2.22
2023-02-02T13:27:21.482Z,2.24
2023-02-02T13:28:46.593Z,2.22
2023-02-02T13:29:51.957Z,2.20
2023-02-02T13:30:57.005Z,2.18
2023-02-02T13:32:11.859Z,2.17
2023-02-02T13:33:21.401Z,2.22
2023-02-02T13:34:25.944Z,2.22
2023-02-02T13:35:47.944Z,2.25
2023-02-02T13:36:59.836Z,2.28
2023-02-02T13:38:15.045Z,2.28
2023-02-02T13:39:27.476Z,2.27
2023-02-02T13:40:37.212Z,2.22
2023-02-02T13:41:39.767Z,2.25
2023-02-02T13:42:44.693Z,2.29
2023-02-02T13:43:53.129Z,2.30
2023-02-02T13:44:59.221Z,2.31
2023-02-02T13:46:19.599Z,2.32
2023-02-02T13:47:36.146Z,2.36
2023-02-02T13:48:53.144Z,2.39
2023-02-02T13:49:59.300Z,2.36
2023-02-02T13:51:27.495Z,2.36
2023-02-02T13:52:32.074Z,2.36
2023-02-02T13:53:40.288Z,2.35
2023-02-02T13:55:00.675Z,2.30
2023-02-02T13:56:22.668Z,2.24
2023-02-02T13:57:36.782Z,2.26
2023-02-02T13:58:53.544Z,2.28
2023-02-02T14:00:01.125Z,2.31
2023-02-02T14:01:07.927Z,2.31
2023-02-02T14:02:25.626Z,2.33
2023-02-02T14:03:39.254Z,2.33
2023-02-02T14:04:41.169Z,2.33
2023-02-02T14:05:42.965Z,2.35
2023-02-02T14:06:57.111Z,2.37
2023-02-02T14:08:07.193Z,2.38
2023-02-02T14:09:17.902Z,2.39
2023-02-02T14:10:25.362Z,2.38
2023-02-02T14:11:34.396Z,2.34
2023-02-02T14:12:36.621Z,2.34
2023-02-02T14:14:02.342Z,2.36
2023-02-02T14:15:05.204Z,2.38
2023-02-02T14:16:08.100Z,2.39
2023-02-02T14:17:17.780Z,2.40
2023-02-02T14:18:39.471Z,2.36
2023-02-02T14:19:44.425Z,2.33
2023-02-02T14:20:48.043Z,2.33
2023-02-02T14:21:49.770Z,2.31
2023-02-02T14:22:52.688Z,2.30
2023-02-02T14:23:55.677Z,2.28
2023-02-02T14:24:57.608Z,2.30
2023-02-02T14:26:07.288Z,2.28
2023-02-02T14:27:09.152Z,2.27
2023-02-02T14:28:12.683Z,2.25
2023-02-02T14:29:32.713Z,2.23
2023-02-02T14:30:35.962Z,2.23
2023-02-02T14:31:42.665Z,2.23